createdAt,value
2022-12-28T00:00:10.562Z,3.23
2022-12-28T00:02:37.239Z,3.14
2022-12-28T00:05:04.115Z,2.99
2022-12-28T00:07:30.720Z,2.98
2022-12-28T00:09:57.270Z,2.77
2022-12-28T00:12:45.667Z,2.76
2022-12-28T00:15:12.220Z,3.00
2022-12-28T00:17:38.886Z,2.68
2022-12-28T00:20:06.211Z,2.50
2022-12-28T00:26:45.844Z,2.78
2022-12-28T00:29:12.534Z,2.98
2022-12-28T00:31:39.473Z,2.99
2022-12-28T00:34:06.238Z,2.88
2022-12-28T00:37:10.367Z,2.85
2022-12-28T00:39:20.943Z,3.00
2022-12-28T00:56:22.396Z,2.65
2022-12-28T00:58:49.595Z,2.65
2022-12-28T01:01:22.264Z,2.49
2022-12-28T01:03:51.932Z,2.27
2022-12-28T01:06:21.637Z,2.50
2022-12-28T01:08:51.382Z,2.57
2022-12-28T01:11:43.404Z,2.06
2022-12-28T01:14:10.077Z,2.14
2022-12-28T01:25:48.345Z,2.30
2022-12-28T01:31:21.323Z,2.17
2022-12-28T01:36:26.150Z,2.28
2022-12-28T01:38:58.268Z,2.35
2022-12-28T01:44:17.019Z,2.36
2022-12-28T01:46:51.019Z,2.41
2022-12-28T01:49:24.577Z,2.21
2022-12-28T01:51:54.221Z,2.20
2022-12-28T01:54:24.285Z,2.28
2022-12-28T01:57:57.031Z,2.22
2022-12-28T02:00:47.645Z,2.30
2022-12-28T02:03:27.307Z,2.27
2022-12-28T02:05:57.347Z,2.20
2022-12-28T02:08:33.359Z,2.33
2022-12-28T02:11:01.173Z,2.34
2022-12-28T02:13:28.156Z,2.29
2022-12-28T02:21:38.780Z,2.43
2022-12-28T02:24:32.892Z,2.56
2022-12-28T02:27:19.853Z,2.76
2022-12-28T02:29:46.527Z,2.62
2022-12-28T02:36:18.684Z,2.78
2022-12-28T02:38:51.841Z,2.98
2022-12-28T02:41:24.816Z,2.98
2022-12-28T02:43:53.075Z,3.04
2022-12-28T02:47:00.133Z,3.05
2022-12-28T02:49:46.810Z,3.08
2022-12-28T02:52:50.909Z,3.06
2022-12-28T02:55:54.553Z,3.01
2022-12-28T02:59:12.396Z,3.13
2022-12-28T03:04:52.678Z,3.00
2022-12-28T03:07:59.565Z,3.07
2022-12-28T03:18:07.065Z,3.28
2022-12-28T03:20:52.190Z,3.14
2022-12-28T03:23:42.267Z,3.06
2022-12-28T03:26:31.696Z,2.55
2022-12-28T03:29:21.604Z,2.03
2022-12-28T03:31:48.320Z,1.92
2022-12-28T03:34:14.994Z,2.34
2022-12-28T03:36:59.955Z,2.36
2022-12-28T03:39:41.689Z,2.42
2022-12-28T03:46:01.657Z,2.64
2022-12-28T03:48:28.872Z,2.19
2022-12-28T03:50:56.042Z,1.80
2022-12-28T03:53:45.637Z,1.57
2022-12-28T03:56:15.168Z,1.47
2022-12-28T03:58:42.204Z,1.35
2022-12-28T04:09:22.448Z,1.41
2022-12-28T04:11:48.995Z,1.36
2022-12-28T04:14:15.585Z,0.97
2022-12-28T04:17:10.209Z,1.02
2022-12-28T04:20:01.330Z,0.78
2022-12-28T04:22:27.893Z,1.49
2022-12-28T04:24:54.429Z,1.67
2022-12-28T04:27:24.093Z,1.77
2022-12-28T04:30:13.225Z,1.85
2022-12-28T04:32:39.773Z,1.80
2022-12-28T04:35:06.545Z,1.70
2022-12-28T04:37:37.455Z,1.79
2022-12-28T04:40:04.458Z,1.80
2022-12-28T04:42:32.715Z,1.83
2022-12-28T04:48:01.439Z,1.77
2022-12-28T04:50:29.652Z,1.79
2022-12-28T04:52:56.272Z,1.73
2022-12-28T04:55:41.074Z,1.66
2022-12-28T04:58:50.549Z,1.58
2022-12-28T05:01:42.721Z,1.61
2022-12-28T05:04:09.375Z,1.32
2022-12-28T05:06:36.145Z,0.88
2022-12-28T05:09:02.802Z,0.95
2022-12-28T05:11:30.279Z,0.98
2022-12-28T05:13:57.182Z,1.01
2022-12-28T05:16:26.122Z,1.02
2022-12-28T05:18:52.924Z,1.17
2022-12-28T05:21:21.933Z,1.01
2022-12-28T05:23:49.572Z,1.14
2022-12-28T05:26:59.223Z,1.09
2022-12-28T05:29:51.003Z,1.18
2022-12-28T05:32:17.532Z,1.30
2022-12-28T05:34:45.028Z,1.23
2022-12-28T05:37:15.640Z,1.43
2022-12-28T05:39:45.194Z,1.41
2022-12-28T05:42:35.104Z,1.49
2022-12-28T05:47:57.538Z,1.23
2022-12-28T05:50:24.152Z,1.36
2022-12-28T05:52:50.689Z,1.40
2022-12-28T05:55:17.299Z,1.36
2022-12-28T05:57:43.962Z,1.24
2022-12-28T06:00:34.430Z,0.85
2022-12-28T06:03:32.206Z,1.24
2022-12-28T06:06:19.066Z,1.34
2022-12-28T06:08:47.390Z,1.37
2022-12-28T06:11:17.226Z,1.39
2022-12-28T06:25:06.957Z,1.08
2022-12-28T06:27:33.530Z,0.88
2022-12-28T06:30:00.135Z,0.52
2022-12-28T06:32:26.954Z,0.94
2022-12-28T06:34:53.498Z,1.04
2022-12-28T06:37:20.040Z,1.10
2022-12-28T06:39:46.586Z,1.11
2022-12-28T06:42:13.140Z,1.04
2022-12-28T06:44:44.529Z,1.17
2022-12-28T06:47:12.153Z,1.11
2022-12-28T06:50:00.194Z,1.07
2022-12-28T06:52:27.009Z,1.03
2022-12-28T06:54:53.617Z,1.09
2022-12-28T06:57:20.353Z,1.10
2022-12-28T07:00:28.547Z,1.15
2022-12-28T07:03:51.576Z,1.21
2022-12-28T07:06:20.054Z,1.25
2022-12-28T07:08:47.641Z,1.17
2022-12-28T07:11:16.716Z,1.14
2022-12-28T07:13:43.446Z,1.30
2022-12-28T07:16:13.151Z,1.22
2022-12-28T07:18:39.946Z,1.03
2022-12-28T07:21:10.620Z,1.24
2022-12-28T07:23:37.506Z,1.42
2022-12-28T07:26:21.977Z,1.47
2022-12-28T07:28:50.731Z,1.57
2022-12-28T07:31:20.447Z,1.67
2022-12-28T07:33:47.953Z,1.65
2022-12-28T07:36:18.110Z,1.71
2022-12-28T07:38:44.985Z,1.57
2022-12-28T07:41:14.384Z,1.22
2022-12-28T07:43:42.067Z,0.72
2022-12-28T07:46:12.132Z,1.07
2022-12-28T07:48:40.243Z,1.44
2022-12-28T07:51:12.720Z,1.74
2022-12-28T07:53:39.779Z,1.72
2022-12-28T07:56:06.976Z,1.84
2022-12-28T07:58:33.954Z,2.01
2022-12-28T08:01:09.504Z,2.14
2022-12-28T08:03:36.984Z,1.96
2022-12-28T08:06:08.175Z,2.06
2022-12-28T08:08:40.259Z,1.84
2022-12-28T08:11:12.252Z,2.19
2022-12-28T08:13:45.155Z,2.13
2022-12-28T08:16:13.639Z,2.56
2022-12-28T08:18:40.813Z,2.60
2022-12-28T08:21:13.635Z,2.57
2022-12-28T08:23:40.783Z,2.36
2022-12-28T08:26:09.824Z,2.49
2022-12-28T08:28:37.431Z,2.55
2022-12-28T08:31:13.136Z,2.73
2022-12-28T08:33:40.140Z,2.50
2022-12-28T08:36:07.851Z,2.60
2022-12-28T08:38:34.450Z,2.93
2022-12-28T08:41:03.432Z,2.97
2022-12-28T08:43:31.130Z,3.34
2022-12-28T08:46:11.218Z,3.10
2022-12-28T08:48:38.435Z,3.36
2022-12-28T08:51:13.365Z,3.42
2022-12-28T08:53:40.866Z,3.36
2022-12-28T08:56:13.465Z,3.27
2022-12-28T08:58:43.513Z,3.55
2022-12-28T09:01:21.601Z,3.17
2022-12-28T09:03:50.768Z,3.47
2022-12-28T09:06:31.401Z,3.55
2022-12-28T09:09:07.223Z,3.77
2022-12-28T09:11:35.662Z,3.61
2022-12-28T09:14:03.254Z,3.78
2022-12-28T09:16:30.238Z,4.16
2022-12-28T09:18:59.617Z,4.26
2022-12-28T09:21:29.505Z,4.53
2022-12-28T09:23:56.536Z,4.45
2022-12-28T09:26:28.663Z,4.59
2022-12-28T09:28:58.314Z,4.80
2022-12-28T09:31:27.668Z,4.68
2022-12-28T09:36:49.848Z,4.73
2022-12-28T09:39:19.397Z,4.98
2022-12-28T09:41:51.288Z,4.73
2022-12-28T09:45:02.614Z,4.97
2022-12-28T09:47:34.133Z,5.11
2022-12-28T09:50:16.077Z,4.91
2022-12-28T09:53:06.853Z,4.96
2022-12-28T09:55:41.380Z,4.85
2022-12-28T09:58:16.950Z,5.36
2022-12-28T10:00:50.342Z,5.20
2022-12-28T10:03:20.462Z,5.21
2022-12-28T10:05:48.085Z,5.26
2022-12-28T10:08:18.626Z,5.30
2022-12-28T10:10:48.913Z,5.24
2022-12-28T10:13:45.895Z,5.09
2022-12-28T10:16:18.088Z,5.37
2022-12-28T10:18:45.527Z,5.77
2022-12-28T10:21:36.564Z,5.97
2022-12-28T11:56:51.442Z,7.39
2022-12-28T11:59:28.055Z,7.98
2022-12-28T12:01:57.497Z,8.24
2022-12-28T12:04:29.858Z,7.98
2022-12-28T12:07:01.290Z,8.04
2022-12-28T13:09:43.044Z,7.89
2022-12-28T13:12:20.157Z,8.45
2022-12-28T13:14:49.985Z,7.72
2022-12-28T13:17:21.757Z,7.49
2022-12-28T13:19:48.428Z,7.75
2022-12-28T13:23:20.597Z,7.65
2022-12-28T13:29:34.563Z,7.47
2022-12-28T13:32:01.171Z,6.75
2022-12-28T13:34:29.328Z,6.65
2022-12-28T13:37:15.937Z,7.01
2022-12-28T13:39:42.827Z,7.19
2022-12-28T14:12:16.140Z,6.29
2022-12-28T14:14:43.938Z,6.34
2022-12-28T14:19:46.103Z,6.09
2022-12-28T14:22:37.649Z,6.36
2022-12-28T14:25:06.787Z,6.33
2022-12-28T14:27:39.842Z,6.25
2022-12-28T14:30:07.951Z,6.26
2022-12-28T14:36:40.814Z,6.41
2022-12-28T14:39:25.209Z,6.29
2022-12-28T14:41:51.982Z,6.41
2022-12-28T14:44:29.936Z,6.77
2022-12-28T14:47:46.380Z,6.60
2022-12-28T14:52:50.589Z,6.40
2022-12-28T14:55:47.216Z,6.42
2022-12-28T14:58:40.423Z,6.06
2022-12-28T15:01:10.201Z,6.01
2022-12-28T15:33:41.274Z,6.76
2022-12-28T15:36:41.509Z,6.41
2022-12-28T15:39:38.294Z,6.33
2022-12-28T15:42:04.977Z,6.20
2022-12-28T15:44:31.658Z,6.26
2022-12-28T15:51:13.664Z,6.25
2022-12-28T15:53:41.655Z,6.12
2022-12-28T15:56:20.293Z,5.75
2022-12-28T15:59:23.991Z,6.03
2022-12-28T16:01:50.761Z,6.15
2022-12-28T16:04:17.562Z,5.97
2022-12-28T16:40:12.183Z,5.88
2022-12-28T16:42:39.395Z,5.80
2022-12-28T16:45:09.208Z,5.80
2022-12-28T16:51:28.940Z,5.66
2022-12-28T16:53:56.021Z,5.36
2022-12-28T16:56:22.785Z,5.42
2022-12-28T16:58:49.805Z,5.43
2022-12-28T17:01:16.636Z,5.50
2022-12-28T17:03:43.428Z,5.88
2022-12-28T17:08:45.539Z,5.62
2022-12-28T17:11:13.068Z,5.55
2022-12-28T17:13:39.753Z,5.67
2022-12-28T17:27:38.642Z,5.55
2022-12-28T17:30:05.663Z,5.59
2022-12-28T17:32:39.297Z,5.43
2022-12-28T17:35:33.750Z,5.49
2022-12-28T17:56:23.924Z,4.69
2022-12-28T17:59:03.481Z,4.64
2022-12-28T18:01:30.517Z,4.52
2022-12-28T18:03:59.746Z,4.64
2022-12-28T18:54:46.628Z,3.75
2022-12-28T18:57:13.182Z,3.62
2022-12-28T18:59:39.766Z,3.66
2022-12-28T19:02:08.464Z,3.58
2022-12-28T19:05:11.107Z,3.68
2022-12-28T19:07:37.857Z,3.54
2022-12-28T19:10:15.863Z,3.49
2022-12-28T19:12:44.699Z,3.46
2022-12-28T19:19:25.994Z,3.36
2022-12-28T19:21:58.376Z,3.23
2022-12-28T19:24:25.531Z,3.36
2022-12-28T19:26:53.856Z,2.99
2022-12-28T19:29:20.437Z,2.81
2022-12-28T19:31:47.002Z,3.13
2022-12-28T19:34:41.305Z,3.26
2022-12-28T19:37:08.035Z,3.39
2022-12-28T19:39:34.589Z,3.39
2022-12-28T19:42:01.139Z,3.13
2022-12-28T19:48:42.831Z,3.30
2022-12-28T21:01:13.319Z,2.02
2022-12-28T21:09:51.100Z,1.82
2022-12-28T21:12:17.860Z,1.75
2022-12-28T21:14:47.597Z,1.80
2022-12-28T21:17:14.247Z,1.70
2022-12-28T21:19:40.864Z,1.63
2022-12-28T21:25:02.995Z,1.82
2022-12-28T21:27:29.577Z,1.83
2022-12-28T21:29:56.166Z,1.84
2022-12-28T21:32:22.710Z,1.87
2022-12-28T21:34:49.455Z,1.86
2022-12-28T22:01:38.930Z,1.05
2022-12-28T22:04:24.147Z,1.28
2022-12-28T22:06:50.818Z,1.46
2022-12-28T22:09:36.009Z,1.65
2022-12-28T22:18:53.150Z,1.65
2022-12-28T22:21:14.042Z,1.38
2022-12-28T22:23:40.609Z,1.50
2022-12-28T22:26:07.487Z,1.51
2022-12-28T22:28:52.970Z,1.52
2022-12-28T22:39:05.241Z,1.39
2022-12-28T22:41:31.853Z,1.23
2022-12-28T22:44:16.846Z,1.12
2022-12-28T22:46:43.421Z,1.24
2022-12-28T22:49:12.334Z,1.27
2022-12-28T22:51:38.936Z,1.09
2022-12-28T22:58:17.800Z,0.94
